Time;durP1;ratioP1;P1;durP2;ratioP2;P2;SDS_P1;SDS_P2;PMS_P1;PMS_P2;Temp;Humidity;BMP_temperature;BMP_pressure;BME280_temperature;BME280_humidity;BME280_pressure;Samples;Min_cycle;Max_cycle;Signal;HPM_P1;HPM_P2
2022/05/31 00:00:24;;;;;;;0.00;0.00;;;;;;;;;;5034321;27;99806;-73
2022/05/31 00:02:51;;;;;;;0.00;0.00;;;;;;;;;;5035589;27;99446;-74
2022/05/31 00:05:18;;;;;;;0.00;0.00;;;;;;;;;;5034642;27;98494;-74
2022/05/31 00:07:44;;;;;;;0.00;0.00;;;;;;;;;;5034590;27;99598;-73
2022/05/31 00:10:12;;;;;;;0.00;0.00;;;;;;;;;;5033748;27;99546;-74
2022/05/31 00:12:38;;;;;;;0.00;0.00;;;;;;;;;;5016498;27;98602;-74
2022/05/31 00:15:05;;;;;;;0.00;0.00;;;;;;;;;;5034803;27;99930;-74
2022/05/31 00:17:32;;;;;;;0.00;0.00;;;;;;;;;;5034662;27;98861;-74
2022/05/31 00:19:59;;;;;;;0.00;0.00;;;;;;;;;;5037520;27;98405;-73
2022/05/31 00:22:26;;;;;;;0.00;0.00;;;;;;;;;;5034186;27;99598;-73
2022/05/31 00:24:53;;;;;;;0.00;0.00;;;;;;;;;;5034899;27;99123;-74
2022/05/31 00:27:20;;;;;;;0.00;0.00;;;;;;;;;;5034270;27;99491;-73
2022/05/31 00:29:47;;;;;;;0.00;0.00;;;;;;;;;;5033912;27;99525;-75
2022/05/31 00:32:15;;;;;;;0.00;0.00;;;;;;;;;;5015984;27;99440;-74
2022/05/31 00:34:43;;;;;;;0.00;0.00;;;;;;;;;;5017696;27;100512;-74
2022/05/31 00:37:10;;;;;;;0.00;0.00;;;;;;;;;;5015406;28;103118;-73
2022/05/31 00:39:36;;;;;;;0.00;0.00;;;;;;;;;;5019383;28;99287;-73
2022/05/31 00:42:04;;;;;;;0.00;0.00;;;;;;;;;;5034423;27;98734;-73
2022/05/31 00:44:32;;;;;;;0.00;0.00;;;;;;;;;;5035920;27;98553;-74
2022/05/31 00:46:58;;;;;;;3.95;3.63;;;;;;;;;;5015733;28;100391;-75
2022/05/31 00:49:24;;;;;;;0.00;0.00;;;;;;;;;;5032921;27;100549;-74
2022/05/31 00:51:52;;;;;;;0.00;0.00;;;;;;;;;;5016175;27;98379;-75
2022/05/31 00:54:19;;;;;;;0.00;0.00;;;;;;;;;;5036315;27;99535;-75
2022/05/31 00:56:47;;;;;;;0.00;0.00;;;;;;;;;;5033519;27;99057;-76
2022/05/31 00:59:19;;;;;;;0.00;0.00;;;;;;;;;;5033747;27;98902;-75
2022/05/31 01:01:47;;;;;;;;;;;;;;;;;;5036939;27;99404;-75
2022/05/31 01:04:14;;;;;;;0.00;0.00;;;;;;;;;;5035775;27;98536;-75
2022/05/31 01:06:40;;;;;;;0.00;0.00;;;;;;;;;;5016281;28;101107;-75
2022/05/31 01:09:07;;;;;;;0.00;0.00;;;;;;;;;;5014798;28;100759;-75
2022/05/31 01:11:35;;;;;;;0.00;0.00;;;;;;;;;;5030538;27;98411;-74
2022/05/31 01:14:20;;;;;;;0.00;0.00;;;;;;;;;;5030200;27;99158;-75
2022/05/31 01:17:06;;;;;;;0.00;0.00;;;;;;;;;;5030073;27;98762;-75
2022/05/31 01:20:00;;;;;;;0.00;0.00;;;;;;;;;;5030458;27;98276;-75
2022/05/31 01:22:38;;;;;;;0.00;0.00;;;;;;;;;;5015287;27;101294;-75
2022/05/31 01:25:07;;;;;;;0.00;0.00;;;;;;;;;;5018096;27;102314;-75
2022/05/31 01:27:53;;;;;;;0.00;0.00;;;;;;;;;;5033378;27;99234;-75
2022/05/31 01:30:19;;;;;;;0.00;0.00;;;;;;;;;;5032673;27;100416;-74
2022/05/31 01:32:48;;;;;;;0.08;0.08;;;;;;;;;;5033688;27;97838;-75
2022/05/31 01:35:18;;;;;;;0.00;0.00;;;;;;;;;;5018952;27;101008;-75
2022/05/31 01:37:47;;;;;;;0.00;0.00;;;;;;;;;;5014733;28;101893;-75
2022/05/31 01:40:17;;;;;;;0.00;0.00;;;;;;;;;;5014629;28;99169;-75
2022/05/31 01:42:46;;;;;;;0.00;0.00;;;;;;;;;;5033480;27;100265;-74
2022/05/31 01:45:12;;;;;;;0.00;0.00;;;;;;;;;;5014666;28;102400;-76
2022/05/31 01:47:39;;;;;;;0.00;0.00;;;;;;;;;;5036673;28;98366;-75
2022/05/31 01:50:08;;;;;;;0.00;0.00;;;;;;;;;;5033246;28;99666;-75
2022/05/31 01:52:35;;;;;;;0.00;0.00;;;;;;;;;;5015540;28;98455;-75
2022/05/31 01:55:01;;;;;;;0.00;0.00;;;;;;;;;;5015595;28;101497;-75
2022/05/31 01:57:30;;;;;;;0.00;0.00;;;;;;;;;;5015689;28;101160;-75
2022/05/31 01:59:59;;;;;;;0.00;0.00;;;;;;;;;;5015147;28;98457;-75
2022/05/31 02:02:26;;;;;;;0.00;0.00;;;;;;;;;;5015517;28;101284;-75
2022/05/31 02:04:53;;;;;;;0.00;0.00;;;;;;;;;;5014691;28;100806;-75
2022/05/31 02:07:22;;;;;;;0.00;0.00;;;;;;;;;;5015202;28;98622;-76
2022/05/31 02:09:50;;;;;;;0.00;0.00;;;;;;;;;;5018142;28;101760;-75
2022/05/31 02:12:26;;;;;;;0.00;0.00;;;;;;;;;;5014697;28;98477;-75
2022/05/31 02:15:16;;;;;;;0.00;0.00;;;;;;;;;;4993868;28;98532;-75
2022/05/31 02:18:03;;;;;;;0.00;0.00;;;;;;;;;;5032640;27;100533;-74
2022/05/31 02:20:48;;;;;;;0.00;0.00;;;;;;;;;;5029122;27;98474;-75
2022/05/31 02:23:14;;;;;;;0.00;0.00;;;;;;;;;;5014878;28;100694;-75
2022/05/31 02:25:40;;;;;;;0.00;0.00;;;;;;;;;;5014093;28;102052;-73
2022/05/31 02:28:07;;;;;;;0.00;0.00;;;;;;;;;;5015300;28;98590;-73
2022/05/31 02:30:33;;;;;;;0.00;0.00;;;;;;;;;;5014089;27;101821;-74
2022/05/31 02:32:59;;;;;;;0.00;0.00;;;;;;;;;;5017097;28;102171;-73
2022/05/31 02:35:26;;;;;;;0.00;0.00;;;;;;;;;;5013848;27;101234;-74
2022/05/31 02:37:52;;;;;;;0.00;0.00;;;;;;;;;;5033219;27;99523;-73
2022/05/31 02:40:19;;;;;;;0.00;0.00;;;;;;;;;;5032243;27;98412;-74
2022/05/31 02:42:46;;;;;;;0.00;0.00;;;;;;;;;;5014401;28;101715;-73
2022/05/31 02:45:14;;;;;;;0.00;0.00;;;;;;;;;;5013797;28;101806;-73
2022/05/31 02:47:43;;;;;;;0.00;0.00;;;;;;;;;;5016365;28;98163;-74
2022/05/31 02:50:09;;;;;;;0.00;0.00;;;;;;;;;;5031964;27;98564;-74
2022/05/31 02:52:36;;;;;;;0.00;0.00;;;;;;;;;;5035157;27;98884;-73
2022/05/31 02:55:03;;;;;;;0.00;0.00;;;;;;;;;;5013793;28;100734;-73
2022/05/31 02:57:29;;;;;;;0.00;0.00;;;;;;;;;;5030706;27;99694;-74
2022/05/31 03:00:11;;;;;;;0.00;0.00;;;;;;;;;;5031520;27;98368;-73
2022/05/31 03:03:00;;;;;;;0.00;0.00;;;;;;;;;;5034334;27;99585;-74
2022/05/31 03:05:39;;;;;;;0.00;0.00;;;;;;;;;;5028704;27;99565;-75
2022/05/31 03:08:24;;;;;;;0.00;0.00;;;;;;;;;;5033934;27;98563;-74
2022/05/31 03:11:14;;;;;;;0.00;0.00;;;;;;;;;;5031265;27;100171;-74
2022/05/31 03:13:41;;;;;;;0.00;0.00;;;;;;;;;;5013774;28;101786;-74
2022/05/31 03:16:10;;;;;;;0.00;0.00;;;;;;;;;;5017246;27;98560;-74
2022/05/31 03:18:39;;;;;;;0.00;0.00;;;;;;;;;;5034874;27;99564;-74
2022/05/31 03:21:13;;;;;;;0.00;0.00;;;;;;;;;;5013218;28;99229;-74
2022/05/31 03:23:43;;;;;;;0.00;0.00;;;;;;;;;;5031805;27;100227;-74
2022/05/31 03:26:11;;;;;;;0.00;0.00;;;;;;;;;;5033024;27;99475;-74
2022/05/31 03:28:38;;;;;;;0.00;0.00;;;;;;;;;;5020868;28;98511;-74
2022/05/31 03:31:04;;;;;;;0.00;0.00;;;;;;;;;;5034902;27;99892;-74
2022/05/31 03:33:32;;;;;;;0.00;0.00;;;;;;;;;;5034792;27;99701;-73
2022/05/31 03:35:58;;;;;;;0.00;0.00;;;;;;;;;;5016446;28;98639;-73
2022/05/31 03:38:30;;;;;;;0.00;0.00;;;;;;;;;;5023684;28;101674;-74
2022/05/31 03:40:58;;;;;;;0.00;0.00;;;;;;;;;;5016382;27;98642;-73
2022/05/31 03:43:30;;;;;;;0.00;0.00;;;;;;;;;;5013088;27;101386;-73
2022/05/31 03:46:15;;;;;;;0.00;0.00;;;;;;;;;;5033652;27;99651;-73
2022/05/31 03:49:11;;;;;;;0.00;0.00;;;;;;;;;;5007586;27;98618;-73
2022/05/31 03:51:42;;;;;;;0.00;0.00;;;;;;;;;;5016642;27;101388;-73
2022/05/31 03:54:20;;;;;;;0.00;0.00;;;;;;;;;;5016324;28;102073;-74
2022/05/31 03:57:19;;;;;;;0.75;0.75;;;;;;;;;;5034817;27;98479;-73
2022/05/31 04:00:03;;;;;;;0.00;0.00;;;;;;;;;;5016485;28;102031;-75
2022/05/31 04:03:04;;;;;;;0.00;0.00;;;;;;;;;;5019076;27;100204;-75
2022/05/31 04:05:31;;;;;;;0.00;0.00;;;;;;;;;;5017059;27;101835;-76
2022/05/31 04:08:02;;;;;;;0.00;0.00;;;;;;;;;;5017061;27;102946;-75
2022/05/31 04:10:29;;;;;;;0.00;0.00;;;;;;;;;;4992900;28;98571;-75
2022/05/31 04:12:56;;;;;;;0.00;0.00;;;;;;;;;;4992859;28;101461;-75
2022/05/31 04:15:45;;;;;;;0.00;0.00;;;;;;;;;;4992903;28;99182;-75
2022/05/31 04:18:12;;;;;;;0.00;0.00;;;;;;;;;;4993119;28;98482;-75
2022/05/31 04:20:41;;;;;;;0.00;0.00;;;;;;;;;;4993189;28;101468;-75
2022/05/31 04:26:12;;;;;;;0.00;0.00;;;;;;;;;;4996739;28;98574;-74
2022/05/31 04:28:58;;;;;;;0.00;0.00;;;;;;;;;;4992497;28;99672;-75
2022/05/31 04:31:48;;;;;;;0.00;0.00;;;;;;;;;;4994365;28;97862;-75
2022/05/31 04:34:38;;;;;;;0.00;0.00;;;;;;;;;;4992996;28;100457;-75
2022/05/31 04:37:06;;;;;;;0.00;0.00;;;;;;;;;;4993841;28;101539;-73
2022/05/31 04:39:52;;;;;;;0.00;0.00;;;;;;;;;;4993103;28;99223;-74
2022/05/31 04:42:44;;;;;;;0.05;0.05;;;;;;;;;;4994904;28;99293;-73
2022/05/31 04:45:35;;;;;;;0.00;0.00;;;;;;;;;;4994309;28;100993;-74
2022/05/31 04:48:19;;;;;;;0.00;0.00;;;;;;;;;;4994928;28;98536;-75
2022/05/31 04:50:46;;;;;;;0.00;0.00;;;;;;;;;;4995516;28;101496;-74
2022/05/31 04:53:13;;;;;;;0.00;0.00;;;;;;;;;;4992691;28;98470;-74
2022/05/31 04:56:00;;;;;;;0.00;0.00;;;;;;;;;;4993567;28;99722;-74
2022/05/31 04:58:27;;;;;;;0.00;0.00;;;;;;;;;;4995426;28;101145;-74
2022/05/31 05:00:55;;;;;;;0.00;0.00;;;;;;;;;;4992313;28;98561;-74
2022/05/31 05:03:21;;;;;;;0.00;0.00;;;;;;;;;;4992186;28;101361;-74
2022/05/31 05:05:48;;;;;;;0.00;0.00;;;;;;;;;;4991616;28;102605;-73
2022/05/31 05:08:20;;;;;;;0.00;0.00;;;;;;;;;;4995519;28;98407;-75
2022/05/31 05:10:47;;;;;;;0.00;0.00;;;;;;;;;;5018296;27;101323;-74
2022/05/31 05:13:27;;;;;;;0.00;0.00;;;;;;;;;;5033146;27;98487;-74
2022/05/31 05:16:00;;;;;;;0.00;0.00;;;;;;;;;;5034185;27;98751;-74
2022/05/31 05:18:32;;;;;;;0.03;0.03;;;;;;;;;;5018684;28;101909;-75
2022/05/31 05:21:01;;;;;;;0.22;0.22;;;;;;;;;;5015907;28;98408;-75
2022/05/31 05:23:28;;;;;;;0.00;0.00;;;;;;;;;;5016337;28;101995;-76
2022/05/31 05:25:56;;;;;;;0.00;0.00;;;;;;;;;;5015405;28;102514;-75
2022/05/31 05:31:35;;;;;;;0.00;0.00;;;;;;;;;;5024795;28;101525;-75
2022/05/31 05:34:20;;;;;;;0.00;0.00;;;;;;;;;;5035919;28;98655;-75
2022/05/31 05:36:54;;;;;;;0.00;0.00;;;;;;;;;;5015248;28;101359;-75
2022/05/31 05:39:22;;;;;;;0.00;0.00;;;;;;;;;;5015185;28;102753;-75
2022/05/31 05:42:07;;;;;;;0.10;0.10;;;;;;;;;;5031791;28;98467;-76
2022/05/31 05:44:39;;;;;;;0.70;0.68;;;;;;;;;;5032602;28;98778;-75
2022/05/31 05:47:08;;;;;;;0.10;0.10;;;;;;;;;;5031983;28;101586;-77
2022/05/31 05:49:34;;;;;;;0.30;0.30;;;;;;;;;;5013449;28;98026;-75
2022/05/31 05:52:16;;;;;;;0.00;0.00;;;;;;;;;;5017705;28;101237;-75
2022/05/31 05:55:02;;;;;;;0.20;0.20;;;;;;;;;;5031581;27;98909;-75
2022/05/31 05:58:02;;;;;;;0.00;0.00;;;;;;;;;;5035146;27;99273;-75
2022/05/31 06:01:06;;;;;;;0.10;0.10;;;;;;;;;;5009852;28;98855;-75
2022/05/31 06:03:43;;;;;;;0.20;0.20;;;;;;;;;;5012792;28;98931;-75
2022/05/31 06:06:10;;;;;;;0.00;0.00;;;;;;;;;;5014344;28;101792;-76
2022/05/31 06:08:57;;;;;;;0.10;0.10;;;;;;;;;;5032370;27;99479;-76
2022/05/31 06:11:26;;;;;;;0.10;0.10;;;;;;;;;;5032322;27;98766;-75
2022/05/31 06:13:55;;;;;;;0.00;0.00;;;;;;;;;;5014348;28;101691;-74
2022/05/31 06:16:22;;;;;;;0.10;0.10;;;;;;;;;;5014566;27;101742;-74
2022/05/31 06:18:55;;;;;;;0.00;0.00;;;;;;;;;;5015140;27;98495;-76
2022/05/31 06:21:24;;;;;;;0.00;0.00;;;;;;;;;;5017734;27;100519;-73
2022/05/31 06:23:55;;;;;;;1.10;0.90;;;;;;;;;;4998106;27;99364;-73
2022/05/31 06:26:27;;;;;;;0.47;0.47;;;;;;;;;;5014447;27;103024;-73
2022/05/31 06:28:56;;;;;;;1.63;0.30;;;;;;;;;;5015124;27;102355;-74
2022/05/31 06:31:22;;;;;;;0.10;0.10;;;;;;;;;;5014462;28;98430;-73
2022/05/31 06:33:49;;;;;;;0.10;0.10;;;;;;;;;;5014523;28;101028;-73
2022/05/31 06:36:18;;;;;;;0.10;0.10;;;;;;;;;;5014211;28;101883;-74
2022/05/31 06:38:45;;;;;;;0.10;0.10;;;;;;;;;;5033924;27;98450;-73
2022/05/31 06:41:12;;;;;;;0.15;0.15;;;;;;;;;;5014812;27;100513;-73
2022/05/31 06:44:13;;;;;;;0.10;0.10;;;;;;;;;;4973047;28;98818;-73
2022/05/31 06:46:58;;;;;;;0.20;0.20;;;;;;;;;;5026516;27;99080;-73
2022/05/31 06:49:56;;;;;;;0.10;0.10;;;;;;;;;;5032225;27;101200;-74
2022/05/31 06:58:56;;;;;;;0.20;0.20;;;;;;;;;;5033769;27;100001;-73
2022/05/31 07:01:30;;;;;;;0.43;0.43;;;;;;;;;;5015972;27;98534;-75
2022/05/31 07:03:59;;;;;;;0.10;0.10;;;;;;;;;;5035674;27;99215;-74
2022/05/31 07:06:26;;;;;;;0.17;0.17;;;;;;;;;;5035851;27;101242;-75
2022/05/31 07:09:15;;;;;;;0.10;0.10;;;;;;;;;;5022057;27;97728;-73
2022/05/31 07:11:42;;;;;;;0.20;0.20;;;;;;;;;;5013556;28;102090;-76
2022/05/31 07:14:40;;;;;;;0.00;0.00;;;;;;;;;;4980681;28;98524;-76
2022/05/31 07:17:36;;;;;;;0.20;0.20;;;;;;;;;;5001625;28;99327;-75
2022/05/31 07:20:07;;;;;;;0.17;0.17;;;;;;;;;;5013443;28;101605;-74
2022/05/31 07:22:35;;;;;;;0.75;0.52;;;;;;;;;;5015266;28;98234;-75
2022/05/31 07:25:19;;;;;;;0.10;0.10;;;;;;;;;;5013289;28;102162;-74
2022/05/31 07:27:52;;;;;;;0.32;0.32;;;;;;;;;;5013175;28;102067;-75
2022/05/31 07:30:18;;;;;;;0.38;0.38;;;;;;;;;;5016989;28;98419;-76
2022/05/31 07:32:47;;;;;;;0.03;0.03;;;;;;;;;;5013202;28;101264;-74
2022/05/31 07:35:41;;;;;;;0.35;0.35;;;;;;;;;;5013311;28;97998;-74
2022/05/31 07:38:13;;;;;;;1.65;0.45;;;;;;;;;;5013798;28;101273;-76
2022/05/31 07:40:44;;;;;;;0.10;0.10;;;;;;;;;;5013527;28;102223;-79
2022/05/31 07:43:11;;;;;;;0.17;0.17;;;;;;;;;;5013471;28;99162;-77
2022/05/31 07:45:47;;;;;;;0.25;0.25;;;;;;;;;;5013551;28;102281;-76
2022/05/31 07:48:15;;;;;;;0.10;0.10;;;;;;;;;;5014156;28;101462;-77
2022/05/31 07:50:44;;;;;;;0.10;0.10;;;;;;;;;;5013570;28;98393;-77
2022/05/31 07:53:33;;;;;;;0.10;0.10;;;;;;;;;;5017469;28;99992;-79
2022/05/31 07:56:32;;;;;;;0.38;0.20;;;;;;;;;;5011609;28;98365;-76
2022/05/31 07:59:33;;;;;;;0.30;0.30;;;;;;;;;;5015241;28;99553;-78
2022/05/31 08:02:20;;;;;;;0.10;0.10;;;;;;;;;;5014581;27;97750;-74
2022/05/31 08:04:52;;;;;;;0.10;0.10;;;;;;;;;;5013005;28;99411;-71
2022/05/31 08:07:18;;;;;;;0.10;0.10;;;;;;;;;;5014593;28;98826;-77
2022/05/31 08:09:45;;;;;;;0.30;0.30;;;;;;;;;;5026406;27;101015;-76
2022/05/31 08:12:12;;;;;;;0.10;0.10;;;;;;;;;;5033290;27;98496;-77
2022/05/31 08:14:38;;;;;;;0.10;0.10;;;;;;;;;;5034177;27;99972;-77
2022/05/31 08:17:05;;;;;;;0.10;0.10;;;;;;;;;;5037414;27;99961;-77
2022/05/31 08:19:32;;;;;;;0.20;0.20;;;;;;;;;;5036077;27;99351;-75
2022/05/31 08:22:04;;;;;;;0.25;0.25;;;;;;;;;;5033399;27;100655;-78
2022/05/31 08:24:31;;;;;;;0.20;0.20;;;;;;;;;;5034293;27;98405;-80
2022/05/31 08:27:14;;;;;;;0.10;0.10;;;;;;;;;;5019442;28;98885;-76
2022/05/31 08:29:42;;;;;;;0.40;0.40;;;;;;;;;;5036089;27;98901;-77
2022/05/31 08:32:08;;;;;;;0.00;0.00;;;;;;;;;;5033783;27;98472;-78
2022/05/31 08:34:35;;;;;;;0.05;0.05;;;;;;;;;;5034083;27;99122;-77
2022/05/31 08:37:02;;;;;;;0.10;0.10;;;;;;;;;;5033571;27;99091;-77
2022/05/31 08:39:28;;;;;;;0.13;0.13;;;;;;;;;;5022603;28;99467;-77
2022/05/31 08:42:21;;;;;;;0.28;0.28;;;;;;;;;;5033812;27;99333;-80
2022/05/31 08:45:08;;;;;;;0.85;0.85;;;;;;;;;;5029651;27;98532;-77
2022/05/31 08:47:49;;;;;;;0.20;0.20;;;;;;;;;;5033594;27;99977;-78
2022/05/31 08:53:06;;;;;;;4.75;0.63;;;;;;;;;;5034126;27;97673;-74
2022/05/31 08:58:50;;;;;;;0.10;0.10;;;;;;;;;;5018785;27;102057;-75
2022/05/31 09:01:18;;;;;;;0.10;0.10;;;;;;;;;;5011252;27;99194;-76
2022/05/31 09:04:01;;;;;;;0.20;0.20;;;;;;;;;;5018551;28;103450;-77
2022/05/31 09:06:32;;;;;;;0.77;0.43;;;;;;;;;;5015688;27;98497;-76
2022/05/31 09:09:26;;;;;;;0.10;0.10;;;;;;;;;;5037208;27;99445;-75
2022/05/31 09:11:59;;;;;;;0.10;0.10;;;;;;;;;;5029242;27;99707;-75
2022/05/31 09:14:35;;;;;;;0.20;0.20;;;;;;;;;;5034684;27;98408;-74
2022/05/31 09:17:12;;;;;;;0.22;0.22;;;;;;;;;;5015468;28;101357;-75
2022/05/31 09:19:51;;;;;;;0.20;0.20;;;;;;;;;;5033787;27;98198;-75
2022/05/31 09:22:23;;;;;;;0.20;0.20;;;;;;;;;;5033518;27;98428;-73
2022/05/31 09:24:49;;;;;;;0.10;0.10;;;;;;;;;;5036129;27;99536;-76
2022/05/31 09:27:20;;;;;;;0.15;0.15;;;;;;;;;;5032967;27;99280;-74
2022/05/31 09:30:06;;;;;;;0.30;0.30;;;;;;;;;;5035052;27;99491;-74
2022/05/31 09:32:41;;;;;;;0.20;0.20;;;;;;;;;;5033627;27;99023;-75
2022/05/31 09:35:15;;;;;;;0.10;0.10;;;;;;;;;;5033199;27;98458;-76
2022/05/31 09:38:01;;;;;;;0.10;0.10;;;;;;;;;;5033413;27;98867;-76
2022/05/31 09:40:45;;;;;;;0.10;0.10;;;;;;;;;;5032666;27;99517;-76
2022/05/31 09:43:18;;;;;;;0.52;0.52;;;;;;;;;;5032330;27;98520;-71
2022/05/31 09:45:51;;;;;;;0.20;0.20;;;;;;;;;;5033750;27;99045;-75
2022/05/31 09:48:18;;;;;;;0.22;0.20;;;;;;;;;;5037464;27;99629;-76
2022/05/31 09:50:44;;;;;;;0.25;0.25;;;;;;;;;;5032988;27;99318;-74
2022/05/31 09:59:11;;;;;;;0.30;0.30;;;;;;;;;;5031867;27;98442;-74
2022/05/31 10:02:02;;;;;;;0.10;0.10;;;;;;;;;;5032023;27;98396;-73
2022/05/31 10:04:41;;;;;;;0.20;0.20;;;;;;;;;;5014600;28;98506;-74
2022/05/31 10:07:08;;;;;;;0.22;0.22;;;;;;;;;;5032808;27;99577;-74
2022/05/31 10:09:38;;;;;;;0.10;0.10;;;;;;;;;;5034407;27;99462;-77
2022/05/31 10:12:10;;;;;;;0.45;0.43;;;;;;;;;;5036191;27;97637;-76
2022/05/31 10:14:39;;;;;;;0.28;0.28;;;;;;;;;;5032518;27;99615;-73
2022/05/31 10:17:25;;;;;;;0.68;0.68;;;;;;;;;;5032930;27;99390;-75
2022/05/31 10:20:05;;;;;;;1.20;0.80;;;;;;;;;;5034329;27;99664;-73
2022/05/31 10:22:31;;;;;;;0.20;0.20;;;;;;;;;;5032081;27;99508;-74
2022/05/31 10:25:36;;;;;;;0.10;0.10;;;;;;;;;;5029291;28;98410;-75
2022/05/31 10:28:42;;;;;;;0.10;0.10;;;;;;;;;;4975032;28;98543;-72
2022/05/31 10:31:32;;;;;;;0.10;0.10;;;;;;;;;;5009949;27;101812;-73
2022/05/31 10:33:59;;;;;;;0.10;0.10;;;;;;;;;;5032880;27;98441;-73
2022/05/31 10:36:30;;;;;;;0.10;0.10;;;;;;;;;;5038249;27;99584;-74
2022/05/31 10:39:06;;;;;;;0.00;0.00;;;;;;;;;;5036995;28;97647;-74
2022/05/31 10:41:34;;;;;;;0.10;0.10;;;;;;;;;;5036117;28;98531;-75
2022/05/31 10:44:35;;;;;;;0.10;0.10;;;;;;;;;;5017780;28;100999;-75
2022/05/31 10:47:01;;;;;;;0.43;0.43;;;;;;;;;;5035953;28;98996;-76
2022/05/31 10:49:27;;;;;;;0.10;0.10;;;;;;;;;;5036347;28;100181;-74
2022/05/31 10:52:12;;;;;;;1.17;0.52;;;;;;;;;;5035606;28;99465;-76
2022/05/31 10:54:54;;;;;;;1.00;1.00;;;;;;;;;;5036124;28;98355;-74
2022/05/31 10:57:20;;;;;;;;;;;;;;;;;;5019107;28;99548;-76
2022/05/31 10:59:50;;;;;;;0.10;0.10;;;;;;;;;;5038396;28;124174;-75
2022/05/31 11:02:19;;;;;;;0.28;0.28;;;;;;;;;;5035628;28;99423;-75
2022/05/31 11:04:56;;;;;;;0.10;0.10;;;;;;;;;;5036379;28;98855;-74
2022/05/31 11:07:38;;;;;;;0.10;0.10;;;;;;;;;;5036135;28;98225;-73
2022/05/31 11:13:02;;;;;;;0.25;0.20;;;;;;;;;;5034701;28;101569;-73
2022/05/31 11:15:50;;;;;;;0.10;0.10;;;;;;;;;;5018768;28;98448;-73
2022/05/31 11:18:16;;;;;;;0.20;0.20;;;;;;;;;;5035808;28;99269;-72
2022/05/31 11:20:51;;;;;;;0.10;0.10;;;;;;;;;;5033814;27;99705;-72
2022/05/31 11:23:21;;;;;;;0.10;0.10;;;;;;;;;;5038947;28;98466;-79
2022/05/31 11:25:57;;;;;;;0.20;0.20;;;;;;;;;;5035312;28;99135;-79
2022/05/31 11:29:02;;;;;;;0.10;0.10;;;;;;;;;;5035796;28;98416;-76
2022/05/31 11:31:46;;;;;;;0.10;0.10;;;;;;;;;;5036400;28;99322;-74
2022/05/31 11:34:18;;;;;;;0.00;0.00;;;;;;;;;;5035438;28;99831;-73
2022/05/31 11:37:06;;;;;;;0.10;0.10;;;;;;;;;;5035898;28;98356;-77
2022/05/31 11:40:28;;;;;;;1.35;1.30;;;;;;;;;;5040147;28;100464;-82
2022/05/31 11:43:08;;;;;;;1.67;1.58;;;;;;;;;;5035045;28;99477;-84
2022/05/31 11:45:44;;;;;;;0.20;0.20;;;;;;;;;;5020771;28;98476;-82
2022/05/31 11:48:38;;;;;;;0.10;0.10;;;;;;;;;;4998502;28;102035;-85
2022/05/31 11:51:57;;;;;;;0.30;0.30;;;;;;;;;;5017465;28;98601;-82
2022/05/31 11:58:36;;;;;;;0.10;0.10;;;;;;;;;;4933153;28;102088;-85
2022/05/31 12:01:22;;;;;;;0.10;0.10;;;;;;;;;;4918726;28;97758;-79
2022/05/31 12:04:09;;;;;;;0.20;0.20;;;;;;;;;;5017892;28;98551;-78
2022/05/31 12:06:35;;;;;;;0.13;0.13;;;;;;;;;;5034946;28;99595;-77
2022/05/31 12:09:13;;;;;;;0.10;0.10;;;;;;;;;;5034207;28;99671;-78
2022/05/31 12:11:44;;;;;;;0.10;0.10;;;;;;;;;;5037953;28;100201;-79
2022/05/31 12:14:13;;;;;;;0.10;0.10;;;;;;;;;;5034865;28;98374;-78
2022/05/31 12:16:40;;;;;;;0.20;0.20;;;;;;;;;;5035145;28;99380;-78
2022/05/31 12:19:13;;;;;;;0.20;0.20;;;;;;;;;;5034581;28;99297;-78
2022/05/31 12:21:39;;;;;;;0.10;0.10;;;;;;;;;;5034490;28;98979;-78
2022/05/31 12:24:06;;;;;;;0.10;0.10;;;;;;;;;;5034919;28;99296;-77
2022/05/31 12:26:35;;;;;;;0.32;0.32;;;;;;;;;;5035038;28;99345;-77
2022/05/31 12:29:04;;;;;;;0.70;0.70;;;;;;;;;;5034590;28;98279;-78
2022/05/31 12:31:32;;;;;;;0.10;0.10;;;;;;;;;;5034692;28;99280;-77
2022/05/31 12:34:18;;;;;;;0.10;0.10;;;;;;;;;;5037113;28;100447;-78
2022/05/31 12:37:04;;;;;;;0.10;0.10;;;;;;;;;;5034725;28;100186;-76
2022/05/31 12:39:33;;;;;;;0.00;0.00;;;;;;;;;;5017024;28;99733;-76
2022/05/31 12:42:15;;;;;;;0.08;0.08;;;;;;;;;;5034816;28;98414;-77
2022/05/31 12:44:45;;;;;;;0.00;0.00;;;;;;;;;;5034258;28;99436;-78
2022/05/31 12:47:12;;;;;;;0.27;0.27;;;;;;;;;;5016810;28;99841;-78
2022/05/31 12:49:49;;;;;;;0.30;0.30;;;;;;;;;;5034537;28;98433;-78
2022/05/31 12:54:54;;;;;;;0.10;0.10;;;;;;;;;;5033702;28;99180;-76
2022/05/31 13:00:33;;;;;;;0.13;0.13;;;;;;;;;;5033629;28;100385;-75
2022/05/31 13:03:01;;;;;;;0.00;0.00;;;;;;;;;;5034076;28;98347;-74
2022/05/31 13:05:31;;;;;;;0.10;0.10;;;;;;;;;;5016324;28;99286;-75
2022/05/31 13:08:17;;;;;;;0.05;0.05;;;;;;;;;;5033774;28;99506;-75
2022/05/31 13:21:59;;;;;;;0.05;0.05;;;;;;;;;;5036904;28;98689;-75
2022/05/31 13:24:26;;;;;;;0.10;0.10;;;;;;;;;;5015654;28;98471;-75
2022/05/31 13:26:53;;;;;;;3.95;0.20;;;;;;;;;;5033560;28;99338;-75
2022/05/31 13:29:23;;;;;;;0.10;0.10;;;;;;;;;;5033870;28;99160;-74
2022/05/31 13:31:51;;;;;;;0.00;0.00;;;;;;;;;;5034020;28;98350;-75
2022/05/31 13:34:45;;;;;;;0.10;0.10;;;;;;;;;;5034007;28;99429;-75
2022/05/31 13:37:14;;;;;;;0.10;0.10;;;;;;;;;;5029609;28;98996;-76
2022/05/31 13:39:42;;;;;;;0.03;0.03;;;;;;;;;;5033680;28;98347;-75
2022/05/31 13:42:16;;;;;;;0.10;0.10;;;;;;;;;;5033716;28;98964;-75
2022/05/31 13:44:49;;;;;;;1.25;0.45;;;;;;;;;;5037645;28;98777;-77
2022/05/31 13:47:18;;;;;;;0.10;0.10;;;;;;;;;;5033657;28;98813;-76
2022/05/31 13:49:45;;;;;;;0.10;0.10;;;;;;;;;;5033425;28;99527;-76
2022/05/31 13:52:18;;;;;;;0.00;0.00;;;;;;;;;;5033307;28;99128;-77
2022/05/31 13:54:44;;;;;;;0.00;0.00;;;;;;;;;;5033419;28;99962;-78
2022/05/31 13:57:11;;;;;;;0.10;0.10;;;;;;;;;;5015687;28;99596;-77
2022/05/31 13:59:46;;;;;;;0.10;0.10;;;;;;;;;;5033152;28;98438;-77
2022/05/31 14:02:18;;;;;;;0.10;0.10;;;;;;;;;;5033414;28;99320;-77
2022/05/31 14:04:50;;;;;;;0.00;0.00;;;;;;;;;;5036347;28;99729;-78
2022/05/31 14:07:17;;;;;;;0.10;0.10;;;;;;;;;;4998958;28;100580;-77
2022/05/31 14:09:54;;;;;;;0.10;0.10;;;;;;;;;;5032272;28;98866;-77
2022/05/31 14:12:23;;;;;;;0.10;0.10;;;;;;;;;;5032974;28;98428;-76
2022/05/31 14:14:52;;;;;;;0.00;0.00;;;;;;;;;;5033184;28;99330;-76
2022/05/31 14:17:33;;;;;;;0.08;0.08;;;;;;;;;;5031031;27;100461;-76
2022/05/31 14:20:17;;;;;;;0.30;0.20;;;;;;;;;;5037108;27;99632;-76
2022/05/31 14:22:44;;;;;;;0.10;0.10;;;;;;;;;;5032228;27;99485;-77
2022/05/31 14:25:10;;;;;;;0.28;0.28;;;;;;;;;;5032058;27;99563;-78
2022/05/31 14:27:39;;;;;;;0.10;0.10;;;;;;;;;;5036041;27;98432;-78
2022/05/31 14:30:07;;;;;;;0.00;0.00;;;;;;;;;;5014470;27;99335;-79
2022/05/31 14:32:34;;;;;;;0.10;0.10;;;;;;;;;;5032326;27;98373;-78
2022/05/31 14:35:09;;;;;;;0.00;0.00;;;;;;;;;;5032914;27;99235;-78
2022/05/31 14:37:38;;;;;;;0.00;0.00;;;;;;;;;;5032045;27;99758;-78
2022/05/31 14:40:07;;;;;;;0.00;0.00;;;;;;;;;;5032567;27;98554;-78
2022/05/31 14:42:35;;;;;;;0.10;0.10;;;;;;;;;;5031810;27;100200;-79
2022/05/31 14:45:02;;;;;;;0.00;0.00;;;;;;;;;;5031839;27;100411;-76
2022/05/31 14:47:30;;;;;;;0.00;0.00;;;;;;;;;;5032346;27;98631;-76
2022/05/31 14:50:03;;;;;;;0.00;0.00;;;;;;;;;;5035147;27;99390;-76
2022/05/31 14:52:43;;;;;;;0.05;0.05;;;;;;;;;;5032389;27;98459;-74
2022/05/31 14:55:16;;;;;;;0.00;0.00;;;;;;;;;;5032408;27;99670;-74
2022/05/31 15:00:35;;;;;;;0.10;0.10;;;;;;;;;;5033287;27;98872;-72
2022/05/31 15:03:04;;;;;;;0.13;0.13;;;;;;;;;;5031871;27;98577;-72
2022/05/31 15:05:31;;;;;;;0.00;0.00;;;;;;;;;;5031509;27;99131;-71
2022/05/31 15:08:00;;;;;;;0.00;0.00;;;;;;;;;;5031774;27;99199;-71
2022/05/31 15:10:34;;;;;;;0.00;0.00;;;;;;;;;;5032920;27;99386;-75
2022/05/31 15:21:08;;;;;;;0.20;0.20;;;;;;;;;;5034129;27;98495;-77
2022/05/31 15:23:35;;;;;;;0.00;0.00;;;;;;;;;;5034377;27;99918;-76
2022/05/31 15:26:04;;;;;;;0.00;0.00;;;;;;;;;;5035443;27;98395;-76
2022/05/31 15:28:31;;;;;;;0.00;0.00;;;;;;;;;;5035410;27;98365;-77
2022/05/31 15:31:02;;;;;;;0.10;0.10;;;;;;;;;;5037642;27;99893;-77
2022/05/31 15:33:48;;;;;;;0.10;0.10;;;;;;;;;;5019472;27;100671;-75
2022/05/31 15:36:15;;;;;;;0.00;0.00;;;;;;;;;;5038134;27;98936;-75
2022/05/31 15:38:42;;;;;;;0.00;0.00;;;;;;;;;;5034683;27;99479;-76
2022/05/31 15:41:08;;;;;;;0.10;0.10;;;;;;;;;;5037697;27;98428;-75
2022/05/31 15:43:53;;;;;;;0.00;0.00;;;;;;;;;;5035052;27;99583;-76
2022/05/31 15:46:20;;;;;;;0.13;0.13;;;;;;;;;;5034369;27;99451;-76
2022/05/31 15:48:48;;;;;;;0.00;0.00;;;;;;;;;;5034780;27;98431;-75
2022/05/31 15:51:22;;;;;;;0.10;0.10;;;;;;;;;;5038445;27;99542;-77
2022/05/31 15:53:49;;;;;;;0.00;0.00;;;;;;;;;;5039597;27;99841;-76
2022/05/31 15:56:16;;;;;;;0.10;0.10;;;;;;;;;;5035993;27;99588;-78
2022/05/31 15:58:43;;;;;;;0.00;0.00;;;;;;;;;;5037367;27;99592;-78
2022/05/31 16:01:10;;;;;;;0.08;0.08;;;;;;;;;;5038311;27;98377;-77
2022/05/31 16:03:37;;;;;;;0.00;0.00;;;;;;;;;;5034150;27;98708;-76
2022/05/31 16:06:04;;;;;;;0.10;0.10;;;;;;;;;;5016163;27;100899;-76
2022/05/31 16:08:30;;;;;;;0.00;0.00;;;;;;;;;;5033828;27;98417;-76
2022/05/31 16:10:57;;;;;;;0.00;0.00;;;;;;;;;;5016465;27;100641;-76
2022/05/31 16:13:23;;;;;;;0.32;0.32;;;;;;;;;;5034377;27;99446;-77
2022/05/31 16:15:50;;;;;;;0.00;0.00;;;;;;;;;;5034766;27;97645;-76
2022/05/31 16:18:17;;;;;;;0.10;0.10;;;;;;;;;;5037568;27;98396;-79